Time;durP1;ratioP1;P1;durP2;ratioP2;P2;SDS_P1;SDS_P2;PMS_P1;PMS_P2;Temp;Humidity;BMP_temperature;BMP_pressure;BME280_temperature;BME280_humidity;BME280_pressure;Samples;Min_cycle;Max_cycle;Signal;HPM_P1;HPM_P2
2023/02/02 00:01:34;;;;;;;8.07;1.10;;;2.60;99.90;;;;;;5094258;27;20063;-59
2023/02/02 00:04:00;;;;;;;11.60;2.15;;;2.60;99.90;;;;;;5099448;28;20464;-58
2023/02/02 00:06:27;;;;;;;9.82;1.50;;;2.60;99.90;;;;;;5096727;28;20036;-55
2023/02/02 00:08:55;;;;;;;9.73;2.50;;;2.60;99.90;;;;;;5097552;28;20050;-59
2023/02/02 00:11:21;;;;;;;8.45;1.67;;;2.60;99.90;;;;;;5086132;23;20046;-59
2023/02/02 00:13:46;;;;;;;10.18;1.50;;;2.60;99.90;;;;;;5053160;28;20577;-57
2023/02/02 00:16:27;;;;;;;13.30;1.80;;;2.60;99.90;;;;;;5033814;28;20052;-57
2023/02/02 00:18:55;;;;;;;7.20;1.52;;;2.60;99.90;;;;;;5025134;28;20037;-57
2023/02/02 00:21:21;;;;;;;12.05;1.60;;;2.60;99.90;;;;;;5021355;28;20408;-58
2023/02/02 00:23:47;;;;;;;10.75;1.95;;;2.60;99.90;;;;;;5024801;28;20502;-60
2023/02/02 00:26:13;;;;;;;17.63;1.83;;;2.60;99.90;;;;;;5004716;28;20048;-59
2023/02/02 00:28:38;;;;;;;12.95;1.75;;;2.60;99.90;;;;;;5020505;28;20051;-59
2023/02/02 00:31:04;;;;;;;9.15;1.60;;;2.70;99.90;;;;;;5022001;28;20035;-57
2023/02/02 00:33:29;;;;;;;16.45;1.88;;;2.70;99.90;;;;;;5022528;28;20038;-60
2023/02/02 00:35:55;;;;;;;9.52;2.17;;;2.70;99.90;;;;;;5023607;28;20151;-58
2023/02/02 00:38:20;;;;;;;12.05;2.22;;;2.70;99.90;;;;;;5022998;28;20037;-60
2023/02/02 00:40:46;;;;;;;11.70;1.60;;;2.70;99.90;;;;;;5023058;28;20041;-58
2023/02/02 00:43:12;;;;;;;5.75;1.30;;;2.70;99.90;;;;;;5023642;28;20033;-58
2023/02/02 00:45:38;;;;;;;11.18;1.77;;;2.70;99.90;;;;;;5002053;28;20052;-58
2023/02/02 00:48:04;;;;;;;8.02;1.58;;;2.70;99.90;;;;;;5005101;28;20444;-57
2023/02/02 00:50:30;;;;;;;10.65;2.05;;;2.70;99.90;;;;;;5023183;28;20041;-56
2023/02/02 00:52:57;;;;;;;12.50;1.90;;;2.70;99.90;;;;;;5022272;28;20037;-58
2023/02/02 00:55:24;;;;;;;6.90;1.60;;;2.60;99.90;;;;;;5002251;28;20037;-57
2023/02/02 00:57:49;;;;;;;9.27;1.70;;;2.60;99.90;;;;;;5020221;28;20405;-54
2023/02/02 01:00:19;;;;;;;14.88;2.53;;;2.70;99.90;;;;;;5022674;28;20037;-55
2023/02/02 01:02:46;;;;;;;16.45;2.47;;;2.70;99.90;;;;;;5022739;28;20042;-56
2023/02/02 01:05:12;;;;;;;11.85;1.85;;;2.70;99.90;;;;;;5017932;28;20044;-58
2023/02/02 01:07:39;;;;;;;14.10;2.10;;;2.70;99.90;;;;;;5021983;28;20172;-57
2023/02/02 01:10:07;;;;;;;8.05;1.30;;;2.70;99.90;;;;;;5022283;28;20061;-57
2023/02/02 01:12:33;;;;;;;5.70;1.50;;;2.70;99.90;;;;;;5023299;28;20050;-59
2023/02/02 01:14:58;;;;;;;12.60;1.88;;;2.70;99.90;;;;;;5020719;28;20041;-58
2023/02/02 01:17:24;;;;;;;6.10;1.48;;;2.70;99.90;;;;;;5018894;28;20052;-56
2023/02/02 01:19:49;;;;;;;9.27;1.85;;;2.80;99.90;;;;;;5022740;28;20107;-59
2023/02/02 01:22:15;;;;;;;12.38;1.70;;;2.80;99.90;;;;;;5022908;28;20034;-56
2023/02/02 01:24:40;;;;;;;14.63;1.67;;;2.80;99.90;;;;;;5023613;28;20037;-57
2023/02/02 01:27:06;;;;;;;13.07;1.90;;;2.80;99.90;;;;;;5017824;28;20416;-58
2023/02/02 01:29:32;;;;;;;8.77;1.92;;;2.80;99.90;;;;;;5016938;28;20050;-59
2023/02/02 01:31:57;;;;;;;20.30;2.47;;;2.80;99.90;;;;;;5017633;28;20041;-57
2023/02/02 01:34:23;;;;;;;7.32;1.63;;;2.80;99.90;;;;;;5023218;28;20509;-58
2023/02/02 01:36:48;;;;;;;9.75;1.50;;;2.90;99.90;;;;;;5018435;28;20065;-54
2023/02/02 01:39:14;;;;;;;11.00;1.90;;;2.90;99.90;;;;;;5019451;28;20099;-57
2023/02/02 01:41:41;;;;;;;11.90;1.88;;;2.80;99.90;;;;;;5020726;28;20041;-59
2023/02/02 01:44:45;;;;;;;8.93;1.75;;;2.90;99.90;;;;;;5021633;28;20069;-59
2023/02/02 01:47:11;;;;;;;6.28;2.05;;;2.90;99.90;;;;;;5019738;28;20033;-58
2023/02/02 01:49:39;;;;;;;6.38;2.05;;;2.90;99.90;;;;;;5022788;28;20113;-58
2023/02/02 01:52:05;;;;;;;14.48;2.63;;;3.00;99.90;;;;;;5022024;28;20465;-57
2023/02/02 01:54:37;;;;;;;10.18;1.98;;;3.00;99.90;;;;;;5022100;28;20501;-59
2023/02/02 01:57:23;;;;;;;11.70;1.95;;;3.00;99.90;;;;;;5021282;28;20125;-56
2023/02/02 01:59:51;;;;;;;18.25;1.77;;;3.00;99.90;;;;;;5005079;28;20045;-57
2023/02/02 02:02:17;;;;;;;9.73;1.65;;;3.00;99.90;;;;;;5017756;28;20044;-59
2023/02/02 02:04:43;;;;;;;14.15;2.17;;;3.00;99.90;;;;;;5021086;28;20044;-58
2023/02/02 02:07:10;;;;;;;16.23;2.50;;;3.00;99.90;;;;;;5019800;28;20033;-55
2023/02/02 02:09:35;;;;;;;9.02;2.35;;;3.00;99.90;;;;;;5019477;28;20155;-58
2023/02/02 02:12:01;;;;;;;10.90;2.03;;;3.00;99.90;;;;;;5020952;28;20075;-59
2023/02/02 02:17:23;;;;;;;16.45;2.83;;;3.10;99.90;;;;;;5019927;28;20041;-59
2023/02/02 02:26:56;;;;;;;16.33;2.67;;;3.10;99.90;;;;;;5013496;28;20460;-58
2023/02/02 02:29:42;;;;;;;17.38;3.42;;;3.10;99.90;;;;;;5016412;28;20397;-58
2023/02/02 02:32:27;;;;;;;;;;;3.10;99.90;;;;;;5019657;28;20030;-59
2023/02/02 02:35:04;;;;;;;15.82;3.45;;;3.20;99.90;;;;;;5019929;28;19933;-56
2023/02/02 02:37:38;;;;;;;19.33;4.25;;;3.20;99.90;;;;;;5019895;28;20041;-58
2023/02/02 02:40:24;;;;;;;13.10;4.18;;;3.20;99.90;;;;;;5020492;28;20049;-58
2023/02/02 02:42:55;;;;;;;18.50;3.88;;;3.20;99.90;;;;;;5016970;28;20282;-59
2023/02/02 02:45:23;;;;;;;22.77;4.45;;;3.20;99.90;;;;;;5019711;28;20072;-56
2023/02/02 02:47:50;;;;;;;21.58;5.35;;;3.30;99.90;;;;;;5018819;28;20064;-56
2023/02/02 02:50:15;;;;;;;19.38;5.63;;;3.30;99.90;;;;;;5020750;28;20037;-58
2023/02/02 02:52:41;;;;;;;14.18;4.50;;;3.30;99.90;;;;;;5004202;28;20038;-54
2023/02/02 02:55:09;;;;;;;16.20;4.97;;;3.30;99.90;;;;;;5019368;28;20045;-59
2023/02/02 02:57:50;;;;;;;20.38;4.13;;;3.40;99.90;;;;;;5014288;28;20390;-58
2023/02/02 03:00:45;;;;;;;13.60;4.78;;;3.40;99.90;;;;;;5017613;28;20072;-60
2023/02/02 03:03:20;;;;;;;16.58;5.68;;;3.40;99.90;;;;;;5019057;28;20049;-58
2023/02/02 03:05:59;;;;;;;14.73;4.90;;;3.40;99.90;;;;;;5018263;28;20827;-57
2023/02/02 03:08:52;;;;;;;11.93;4.45;;;3.30;99.90;;;;;;5017125;28;20068;-59
2023/02/02 03:11:19;;;;;;;21.77;4.82;;;3.40;99.90;;;;;;5019239;28;20046;-60
2023/02/02 03:13:45;;;;;;;18.83;5.13;;;3.40;99.90;;;;;;5020675;28;20697;-60
2023/02/02 03:16:11;;;;;;;18.25;4.85;;;3.40;99.90;;;;;;5016926;28;20102;-56
2023/02/02 03:18:37;;;;;;;19.38;4.63;;;3.40;99.90;;;;;;5018031;28;20033;-60
2023/02/02 03:21:02;;;;;;;15.30;4.68;;;3.40;99.90;;;;;;5002507;28;20103;-59
2023/02/02 03:23:28;;;;;;;17.33;4.40;;;3.40;99.90;;;;;;5022020;28;20045;-57
2023/02/02 03:25:54;;;;;;;24.05;4.57;;;3.40;99.90;;;;;;5017713;28;20033;-58
2023/02/02 03:28:21;;;;;;;19.02;4.93;;;3.50;99.90;;;;;;5021231;28;20041;-59
2023/02/02 03:30:47;;;;;;;15.05;4.72;;;3.40;99.90;;;;;;5019630;28;20037;-60
2023/02/02 03:33:14;;;;;;;34.15;5.47;;;3.50;99.90;;;;;;5021640;28;20440;-59
2023/02/02 03:35:40;;;;;;;13.82;4.35;;;3.50;99.90;;;;;;5019812;28;20107;-57
2023/02/02 03:38:06;;;;;;;14.18;4.28;;;3.50;99.90;;;;;;5019175;28;20732;-58
2023/02/02 03:40:32;;;;;;;13.38;4.53;;;3.50;99.90;;;;;;5018741;28;20428;-58
2023/02/02 03:42:58;;;;;;;16.65;5.32;;;3.50;99.90;;;;;;5021349;28;20036;-59
2023/02/02 03:45:27;;;;;;;11.23;4.25;;;3.50;99.90;;;;;;5020809;28;20037;-57
2023/02/02 03:47:52;;;;;;;13.88;4.32;;;3.50;99.90;;;;;;5020688;28;20072;-59
2023/02/02 03:50:18;;;;;;;18.48;4.55;;;3.50;99.90;;;;;;5020833;28;20064;-57
2023/02/02 03:52:43;;;;;;;12.60;4.30;;;3.50;99.90;;;;;;5022487;28;20052;-59
2023/02/02 03:55:09;;;;;;;18.30;5.32;;;3.50;99.90;;;;;;5023334;28;20095;-58
2023/02/02 03:57:34;;;;;;;16.10;4.88;;;3.40;99.90;;;;;;5023223;28;20076;-59
2023/02/02 04:00:00;;;;;;;12.63;4.88;;;3.40;99.90;;;;;;5023983;28;20781;-59
2023/02/02 04:02:26;;;;;;;16.85;4.18;;;3.40;99.90;;;;;;5023548;28;20102;-58
2023/02/02 04:04:51;;;;;;;20.08;5.10;;;3.50;99.90;;;;;;5023941;28;20049;-59
2023/02/02 04:07:17;;;;;;;12.68;4.70;;;3.40;99.90;;;;;;5023976;28;20037;-59
2023/02/02 04:09:42;;;;;;;17.10;5.05;;;3.40;99.90;;;;;;5024326;28;20038;-58
2023/02/02 04:12:08;;;;;;;20.42;5.68;;;3.40;99.90;;;;;;5022161;28;20428;-58
2023/02/02 04:14:33;;;;;;;12.70;4.15;;;3.40;99.90;;;;;;5023976;28;20160;-59
2023/02/02 04:16:59;;;;;;;16.45;4.38;;;3.50;99.90;;;;;;5022849;28;20045;-57
2023/02/02 04:19:25;;;;;;;17.60;4.65;;;3.50;99.90;;;;;;5024618;28;20128;-58
2023/02/02 04:21:50;;;;;;;15.77;4.35;;;3.50;99.90;;;;;;5018749;28;20063;-58
2023/02/02 04:24:16;;;;;;;13.40;4.07;;;3.40;99.90;;;;;;5023577;28;20041;-59
2023/02/02 04:26:42;;;;;;;12.13;4.00;;;3.30;99.90;;;;;;5019022;28;20041;-58
2023/02/02 04:29:07;;;;;;;9.73;4.25;;;3.30;99.90;;;;;;5024060;28;20045;-56
2023/02/02 04:31:33;;;;;;;8.02;3.60;;;3.30;99.90;;;;;;5020777;28;20041;-57
2023/02/02 04:33:59;;;;;;;11.10;3.83;;;3.30;99.90;;;;;;5025042;28;20044;-59
2023/02/02 04:36:25;;;;;;;11.05;3.63;;;3.30;99.90;;;;;;5023006;28;20045;-59
2023/02/02 04:38:52;;;;;;;6.70;3.25;;;3.30;99.90;;;;;;5024540;28;20033;-58
2023/02/02 04:41:18;;;;;;;11.68;3.35;;;3.30;99.90;;;;;;5022508;28;20033;-59
2023/02/02 04:43:44;;;;;;;8.32;3.47;;;3.30;99.90;;;;;;5023476;28;20075;-57
2023/02/02 04:46:10;;;;;;;9.68;3.80;;;3.30;99.90;;;;;;5022904;28;20045;-58
2023/02/02 04:48:36;;;;;;;16.63;4.00;;;3.40;99.90;;;;;;5023472;28;20046;-58
2023/02/02 04:51:04;;;;;;;7.40;2.47;;;3.40;99.90;;;;;;5020802;28;20049;-56
2023/02/02 04:53:31;;;;;;;3.92;1.88;;;3.30;99.90;;;;;;5022799;28;20088;-56
2023/02/02 04:55:57;;;;;;;6.88;2.80;;;3.40;99.90;;;;;;5019288;28;20033;-59
2023/02/02 04:58:23;;;;;;;5.82;2.10;;;3.30;99.90;;;;;;5021550;28;20071;-59
2023/02/02 05:00:49;;;;;;;3.95;1.90;;;3.30;99.90;;;;;;5020317;28;20038;-58
2023/02/02 05:03:15;;;;;;;5.22;1.48;;;3.30;99.90;;;;;;5022395;28;20129;-58
2023/02/02 05:05:41;;;;;;;7.00;1.63;;;3.20;99.90;;;;;;5020477;28;20049;-55
2023/02/02 05:08:08;;;;;;;3.72;1.63;;;3.10;99.90;;;;;;5023349;28;20128;-59
2023/02/02 05:10:34;;;;;;;9.55;1.50;;;3.10;99.90;;;;;;5022987;28;20091;-59
2023/02/02 05:12:59;;;;;;;5.28;1.52;;;3.00;99.90;;;;;;5019742;28;20053;-56
2023/02/02 05:15:25;;;;;;;6.10;1.30;;;3.00;99.90;;;;;;5021023;28;20489;-58
2023/02/02 05:17:51;;;;;;;2.80;1.00;;;3.00;99.90;;;;;;5020563;28;20049;-58
2023/02/02 05:20:16;;;;;;;5.00;0.77;;;3.00;99.90;;;;;;5002543;28;20057;-57
2023/02/02 05:22:42;;;;;;;2.53;0.85;;;2.90;99.90;;;;;;5004865;28;20059;-57
2023/02/02 05:25:09;;;;;;;1.65;0.75;;;2.90;99.90;;;;;;5020082;28;21204;-57
2023/02/02 05:27:34;;;;;;;6.00;0.90;;;2.90;99.90;;;;;;5018779;28;20040;-57
2023/02/02 05:30:00;;;;;;;2.65;0.80;;;2.70;99.90;;;;;;5019595;28;20401;-58
2023/02/02 05:32:28;;;;;;;2.30;0.60;;;2.60;99.90;;;;;;5020189;28;20037;-56
2023/02/02 05:34:54;;;;;;;3.67;0.60;;;2.60;99.90;;;;;;5004423;28;20505;-58
2023/02/02 05:37:20;;;;;;;1.15;0.60;;;2.60;99.90;;;;;;5020385;28;20037;-59
2023/02/02 05:39:46;;;;;;;2.50;0.75;;;2.60;99.90;;;;;;5023447;28;20106;-53
2023/02/02 05:42:11;;;;;;;1.02;0.30;;;2.60;99.90;;;;;;5020426;28;20033;-57
2023/02/02 05:44:37;;;;;;;1.10;0.45;;;2.70;99.90;;;;;;5022680;28;20489;-56
2023/02/02 05:47:02;;;;;;;0.95;0.50;;;2.60;99.90;;;;;;5021682;28;20036;-54
2023/02/02 05:49:28;;;;;;;0.55;0.30;;;2.60;99.90;;;;;;5022715;28;20592;-57
2023/02/02 05:51:56;;;;;;;1.52;0.40;;;2.60;99.90;;;;;;5022542;28;20029;-56
2023/02/02 05:54:22;;;;;;;1.90;0.57;;;2.60;99.90;;;;;;5022339;28;20045;-58
2023/02/02 05:56:49;;;;;;;0.35;0.32;;;2.60;99.90;;;;;;5021745;28;20144;-57
2023/02/02 05:59:16;;;;;;;0.57;0.30;;;2.50;99.90;;;;;;5023143;28;20497;-58
2023/02/02 06:01:42;;;;;;;0.93;0.40;;;2.50;99.90;;;;;;5019960;28;20068;-53
2023/02/02 06:04:08;;;;;;;3.67;0.40;;;2.50;99.90;;;;;;5023193;28;20049;-59
2023/02/02 06:06:34;;;;;;;2.08;0.68;;;2.50;99.90;;;;;;5021355;28;20657;-58
2023/02/02 06:09:00;;;;;;;1.23;0.40;;;2.50;99.90;;;;;;5021991;28;20053;-59
2023/02/02 06:11:26;;;;;;;0.70;0.40;;;2.40;99.90;;;;;;5022466;28;20047;-59
2023/02/02 06:13:51;;;;;;;0.55;0.20;;;2.40;99.90;;;;;;5020314;28;21200;-59
2023/02/02 06:16:17;;;;;;;1.00;0.30;;;2.40;99.90;;;;;;5019294;28;20462;-57
2023/02/02 06:18:43;;;;;;;1.13;0.40;;;2.40;99.90;;;;;;5021342;28;20038;-57
2023/02/02 06:21:09;;;;;;;0.90;0.45;;;2.40;99.90;;;;;;5019482;28;20047;-55
2023/02/02 06:23:35;;;;;;;0.60;0.30;;;2.40;99.90;;;;;;5017678;28;20041;-60
2023/02/02 06:26:02;;;;;;;0.47;0.40;;;2.40;99.90;;;;;;5002924;28;20033;-53
2023/02/02 06:28:29;;;;;;;0.38;0.22;;;2.40;99.90;;;;;;5021147;28;20515;-57
2023/02/02 06:30:55;;;;;;;0.95;0.50;;;2.40;99.90;;;;;;5018056;28;20033;-58
2023/02/02 06:33:21;;;;;;;1.67;0.52;;;2.40;99.90;;;;;;5020351;28;20045;-59
2023/02/02 06:35:46;;;;;;;0.70;0.40;;;2.40;99.90;;;;;;5020748;28;20041;-58
2023/02/02 06:38:12;;;;;;;0.88;0.30;;;2.40;99.90;;;;;;5021200;28;20434;-59
2023/02/02 06:40:37;;;;;;;3.35;0.73;;;2.50;99.90;;;;;;5020417;28;20077;-63
2023/02/02 06:43:03;;;;;;;2.63;0.40;;;2.50;99.90;;;;;;5020009;28;20048;-58
2023/02/02 06:45:30;;;;;;;1.70;0.50;;;2.50;99.90;;;;;;5018366;28;20034;-54
2023/02/02 06:48:02;;;;;;;0.40;0.30;;;2.50;99.90;;;;;;5021031;28;20123;-62
2023/02/02 06:50:28;;;;;;;0.47;0.28;;;2.40;99.90;;;;;;5018608;28;20033;-59
2023/02/02 06:52:53;;;;;;;2.30;0.40;;;2.40;99.90;;;;;;5022355;28;20444;-59
2023/02/02 06:55:19;;;;;;;0.70;0.30;;;2.40;99.90;;;;;;5015545;28;20045;-59
2023/02/02 06:57:45;;;;;;;4.55;0.57;;;2.50;99.90;;;;;;5019919;28;20046;-57
2023/02/02 07:00:12;;;;;;;1.95;0.50;;;2.40;99.90;;;;;;5002286;28;20088;-64
2023/02/02 07:02:38;;;;;;;0.93;0.32;;;2.40;99.90;;;;;;5018897;28;20049;-56
2023/02/02 07:05:04;;;;;;;0.95;0.22;;;2.40;99.90;;;;;;5015939;28;20042;-59
2023/02/02 07:07:34;;;;;;;0.77;0.47;;;2.40;99.90;;;;;;5017233;28;20068;-58
2023/02/02 07:10:00;;;;;;;1.00;0.65;;;2.40;99.90;;;;;;5020833;28;20033;-60
2023/02/02 07:12:26;;;;;;;0.80;0.70;;;2.40;99.90;;;;;;5013380;28;20048;-58
2023/02/02 07:14:52;;;;;;;1.48;0.60;;;2.30;99.90;;;;;;5020748;28;20049;-60
2023/02/02 07:17:18;;;;;;;0.68;0.50;;;2.30;99.90;;;;;;5016953;28;20037;-59
2023/02/02 07:19:43;;;;;;;0.77;0.52;;;2.40;99.90;;;;;;5020578;28;20205;-60
2023/02/02 07:22:09;;;;;;;0.98;0.40;;;2.30;99.90;;;;;;5022195;28;20033;-56
2023/02/02 07:24:37;;;;;;;0.88;0.57;;;2.30;99.90;;;;;;5020120;28;20069;-57
2023/02/02 07:27:03;;;;;;;5.55;1.08;;;2.20;99.90;;;;;;5019138;28;20116;-59
2023/02/02 07:29:29;;;;;;;3.67;1.15;;;2.20;99.90;;;;;;5025688;28;20119;-59
2023/02/02 07:31:54;;;;;;;2.45;1.30;;;2.20;99.90;;;;;;5022107;28;20065;-59
2023/02/02 07:34:20;;;;;;;3.50;1.33;;;2.10;99.90;;;;;;5007886;28;20152;-59
2023/02/02 07:36:46;;;;;;;5.75;1.13;;;2.10;99.90;;;;;;5005387;28;20475;-59
2023/02/02 07:39:11;;;;;;;1.88;0.90;;;2.10;99.90;;;;;;5023128;28;20044;-57
2023/02/02 07:41:37;;;;;;;1.20;0.70;;;2.20;99.90;;;;;;5023016;28;20037;-58
2023/02/02 07:44:03;;;;;;;3.20;1.38;;;2.20;99.90;;;;;;5025116;28;20124;-60
2023/02/02 07:46:29;;;;;;;1.65;0.75;;;2.20;99.90;;;;;;5024276;28;20121;-58
2023/02/02 07:48:55;;;;;;;2.42;0.88;;;2.10;99.90;;;;;;5024468;28;20100;-58
2023/02/02 07:51:22;;;;;;;5.13;0.82;;;2.10;99.90;;;;;;5022770;28;20060;-59
2023/02/02 07:53:50;;;;;;;3.28;1.50;;;2.10;99.90;;;;;;5024221;28;20033;-59
2023/02/02 07:56:19;;;;;;;4.43;1.27;;;2.10;99.90;;;;;;5021376;28;20049;-58
2023/02/02 07:58:45;;;;;;;2.17;1.17;;;2.20;99.90;;;;;;5025089;28;20053;-59
2023/02/02 08:01:13;;;;;;;2.08;1.63;;;2.30;99.90;;;;;;5022117;28;20048;-56
2023/02/02 08:03:39;;;;;;;3.13;1.50;;;2.40;99.90;;;;;;5020211;28;20690;-59
2023/02/02 08:06:16;;;;;;;2.63;1.35;;;2.50;99.90;;;;;;5021549;28;20037;-59
2023/02/02 08:08:41;;;;;;;3.92;1.38;;;2.50;99.90;;;;;;5021837;28;20085;-59
2023/02/02 08:11:09;;;;;;;2.47;1.60;;;2.50;99.90;;;;;;5023748;28;20061;-57
2023/02/02 08:13:35;;;;;;;5.63;1.33;;;2.50;99.90;;;;;;5024645;28;20041;-59
2023/02/02 08:16:01;;;;;;;4.13;1.77;;;2.50;99.90;;;;;;5020747;28;20056;-60
2023/02/02 08:18:27;;;;;;;2.10;1.30;;;2.50;99.90;;;;;;5024561;28;20045;-56
2023/02/02 08:20:52;;;;;;;2.33;1.25;;;2.60;99.90;;;;;;5023844;28;20045;-54
2023/02/02 08:23:22;;;;;;;1.70;1.30;;;2.70;99.90;;;;;;5024818;28;20033;-57
2023/02/02 08:25:49;;;;;;;2.10;1.17;;;2.70;99.90;;;;;;5020177;28;20463;-57
2023/02/02 08:28:15;;;;;;;3.50;1.30;;;2.70;99.90;;;;;;5022898;28;20045;-60
2023/02/02 08:30:41;;;;;;;2.05;1.27;;;2.70;99.90;;;;;;5020594;28;20064;-59
2023/02/02 08:33:07;;;;;;;3.03;1.80;;;2.70;99.90;;;;;;5023401;28;20072;-58
2023/02/02 08:35:32;;;;;;;1.40;0.98;;;2.80;99.90;;;;;;5023042;28;20052;-56
2023/02/02 08:38:01;;;;;;;3.53;1.45;;;2.90;99.90;;;;;;5022805;28;20041;-57
2023/02/02 08:40:28;;;;;;;1.55;1.27;;;3.00;99.90;;;;;;5004531;28;20061;-59
2023/02/02 08:42:54;;;;;;;2.42;1.20;;;3.00;99.90;;;;;;5022932;28;20041;-56
2023/02/02 08:45:20;;;;;;;2.67;1.20;;;3.10;99.90;;;;;;5022853;28;20049;-57
2023/02/02 08:47:46;;;;;;;4.28;1.10;;;3.10;99.90;;;;;;5024861;28;20041;-59
2023/02/02 08:50:11;;;;;;;1.42;1.15;;;3.10;99.90;;;;;;5023640;28;20035;-58
2023/02/02 08:52:37;;;;;;;1.77;1.17;;;3.20;99.90;;;;;;5021395;28;21593;-56
2023/02/02 08:55:03;;;;;;;1.60;1.17;;;3.20;99.90;;;;;;5022939;28;20033;-58
2023/02/02 08:57:31;;;;;;;1.70;1.20;;;3.30;99.90;;;;;;5023486;28;20041;-60
2023/02/02 08:59:57;;;;;;;2.17;1.15;;;3.30;99.90;;;;;;5024325;28;20765;-60
2023/02/02 09:02:23;;;;;;;4.35;1.33;;;3.30;99.90;;;;;;5022119;28;20099;-60
2023/02/02 09:04:48;;;;;;;2.00;1.38;;;3.30;99.90;;;;;;5023882;28;20045;-60
2023/02/02 09:07:14;;;;;;;2.17;1.20;;;3.40;99.90;;;;;;5018983;28;20508;-57
2023/02/02 09:09:39;;;;;;;1.30;1.20;;;3.40;99.90;;;;;;5022054;28;20536;-60
2023/02/02 09:12:05;;;;;;;1.23;1.00;;;3.40;99.90;;;;;;5022109;28;20049;-59
2023/02/02 09:14:31;;;;;;;1.20;0.90;;;3.40;99.90;;;;;;5023780;28;20122;-60
2023/02/02 09:16:56;;;;;;;1.88;1.33;;;3.50;99.90;;;;;;5022158;28;20069;-55
2023/02/02 09:19:22;;;;;;;2.00;1.17;;;3.50;99.90;;;;;;5023450;28;20591;-55
2023/02/02 09:21:51;;;;;;;1.92;0.80;;;3.50;99.90;;;;;;5022229;28;20088;-59
2023/02/02 09:24:16;;;;;;;1.88;1.00;;;3.60;99.90;;;;;;5021664;28;20041;-58
2023/02/02 09:26:43;;;;;;;3.15;1.40;;;3.50;99.90;;;;;;5019767;28;20041;-58
2023/02/02 09:29:15;;;;;;;2.22;1.17;;;3.50;99.90;;;;;;5022897;28;20799;-56
2023/02/02 09:31:41;;;;;;;1.35;1.10;;;3.40;99.90;;;;;;5021127;28;20041;-58
2023/02/02 09:34:12;;;;;;;1.80;0.88;;;3.50;99.90;;;;;;5020047;28;20034;-58
2023/02/02 09:36:38;;;;;;;3.80;1.08;;;3.50;99.90;;;;;;5018865;28;20106;-58
2023/02/02 09:39:05;;;;;;;1.75;1.13;;;3.50;99.90;;;;;;5021691;28;20041;-59
2023/02/02 09:41:33;;;;;;;3.30;1.70;;;3.50;99.90;;;;;;5019407;28;20045;-57
2023/02/02 09:44:15;;;;;;;2.33;1.50;;;3.50;99.90;;;;;;5023740;28;20033;-57
2023/02/02 09:47:14;;;;;;;2.83;1.50;;;3.50;99.90;;;;;;5021225;28;20041;-56
2023/02/02 09:49:51;;;;;;;2.55;1.60;;;3.60;99.90;;;;;;5021643;28;20045;-59
2023/02/02 09:52:44;;;;;;;3.40;1.48;;;3.60;99.90;;;;;;5020433;28;20045;-58
2023/02/02 09:55:28;;;;;;;1.38;1.17;;;3.60;99.90;;;;;;4989688;28;20175;-59
2023/02/02 09:58:20;;;;;;;3.60;1.38;;;3.70;99.90;;;;;;5017987;28;20048;-59
2023/02/02 10:01:01;;;;;;;0.88;0.60;;;3.60;99.90;;;;;;5017678;28;20041;-58
2023/02/02 10:04:05;;;;;;;1.45;0.65;;;3.30;99.90;;;;;;5020215;28;20037;-57
2023/02/02 10:06:36;;;;;;;3.25;0.47;;;3.10;99.90;;;;;;5019340;28;20827;-60
2023/02/02 10:09:18;;;;;;;0.75;0.50;;;3.00;99.90;;;;;;5019552;28;20084;-57
2023/02/02 10:12:22;;;;;;;0.73;0.50;;;3.00;99.90;;;;;;5020042;28;20037;-60
2023/02/02 10:15:01;;;;;;;0.70;0.52;;;2.90;99.90;;;;;;5020169;28;20155;-57
2023/02/02 10:17:55;;;;;;;0.50;0.45;;;2.90;99.90;;;;;;5021421;28;20037;-58
2023/02/02 10:20:40;;;;;;;0.93;0.60;;;3.00;99.90;;;;;;5017670;28;20478;-59
2023/02/02 10:23:40;;;;;;;0.38;0.38;;;3.00;99.90;;;;;;5018715;28;20041;-58
2023/02/02 10:26:19;;;;;;;1.38;0.80;;;2.80;99.90;;;;;;4976375;28;20072;-59
2023/02/02 10:29:10;;;;;;;0.40;0.40;;;2.70;99.90;;;;;;5021312;28;20075;-59
2023/02/02 10:32:21;;;;;;;0.30;0.30;;;2.70;99.90;;;;;;5018843;28;20160;-57
2023/02/02 10:35:15;;;;;;;0.40;0.32;;;2.70;99.90;;;;;;5000053;28;20071;-58
2023/02/02 10:38:15;;;;;;;0.70;0.40;;;2.70;99.90;;;;;;5022201;28;20044;-59
2023/02/02 10:40:51;;;;;;;0.30;0.30;;;2.70;99.90;;;;;;5006190;28;20054;-59
2023/02/02 10:43:45;;;;;;;;;;;2.70;99.90;;;;;;5022649;28;20040;-58
2023/02/02 10:46:20;;;;;;;1.10;0.60;;;2.70;99.90;;;;;;5016976;28;19929;-58
2023/02/02 10:48:47;;;;;;;0.70;0.43;;;2.80;99.90;;;;;;5021698;28;20061;-59
2023/02/02 10:51:21;;;;;;;1.05;0.60;;;2.80;99.90;;;;;;5019810;28;20049;-60
2023/02/02 10:53:51;;;;;;;1.33;0.80;;;2.90;99.90;;;;;;5022117;28;20045;-58
2023/02/02 10:56:22;;;;;;;2.00;1.40;;;2.90;99.90;;;;;;5019611;28;20044;-59
2023/02/02 10:59:04;;;;;;;1.88;1.10;;;2.90;99.90;;;;;;5004867;28;20064;-52
2023/02/02 11:01:30;;;;;;;7.30;5.10;;;3.00;99.90;;;;;;5018494;28;20049;-59
2023/02/02 11:06:49;;;;;;;7.30;2.10;;;3.00;99.90;;;;;;5003118;28;20500;-56
2023/02/02 11:09:19;;;;;;;1.20;0.90;;;3.00;99.90;;;;;;5019920;28;20080;-59
2023/02/02 11:11:48;;;;;;;1.17;0.73;;;3.00;99.90;;;;;;5018175;28;20046;-63
2023/02/02 11:14:23;;;;;;;1.60;0.82;;;3.00;99.90;;;;;;5021467;28;20052;-58
2023/02/02 11:17:17;;;;;;;0.60;0.40;;;3.00;99.90;;;;;;5019514;28;20042;-55
2023/02/02 11:19:42;;;;;;;0.40;0.30;;;3.00;99.90;;;;;;5021369;28;20063;-58
2023/02/02 11:22:27;;;;;;;0.38;0.38;;;2.90;99.90;;;;;;5020139;28;20068;-59
2023/02/02 11:24:54;;;;;;;4.20;1.95;;;2.90;99.90;;;;;;5018954;28;20445;-60
2023/02/02 11:27:31;;;;;;;3.72;2.25;;;2.90;99.90;;;;;;5019419;28;20061;-61
2023/02/02 11:29:58;;;;;;;4.60;2.38;;;2.90;99.90;;;;;;5021997;28;20092;-57
2023/02/02 11:32:32;;;;;;;4.85;2.38;;;3.00;99.90;;;;;;5018681;28;20117;-59
2023/02/02 11:35:10;;;;;;;2.95;1.60;;;2.90;99.90;;;;;;5021279;28;20453;-59
2023/02/02 11:37:37;;;;;;;7.70;3.35;;;2.90;99.90;;;;;;5014735;28;20103;-56
2023/02/02 11:40:27;;;;;;;4.40;2.20;;;3.00;99.90;;;;;;5015760;28;20124;-59
2023/02/02 11:42:55;;;;;;;16.10;6.75;;;2.90;99.90;;;;;;5020196;28;20042;-58
2023/02/02 11:45:42;;;;;;;21.17;11.70;;;3.00;99.90;;;;;;5018935;28;20076;-57
2023/02/02 11:48:46;;;;;;;17.77;10.38;;;3.10;99.90;;;;;;5016808;28;20033;-58
2023/02/02 11:51:21;;;;;;;9.27;4.57;;;3.10;99.90;;;;;;5015756;28;20041;-57
2023/02/02 11:53:48;;;;;;;2.92;2.10;;;3.20;99.90;;;;;;5018755;28;20706;-59
2023/02/02 11:56:26;;;;;;;1.83;1.30;;;3.20;99.90;;;;;;5001826;28;20049;-60
2023/02/02 11:58:55;;;;;;;4.10;1.50;;;3.20;99.90;;;;;;5002637;28;20185;-58
2023/02/02 12:01:30;;;;;;;4.70;2.10;;;3.20;99.90;;;;;;4999816;28;20087;-59
2023/02/02 12:03:58;;;;;;;1.13;1.02;;;3.30;99.90;;;;;;5021135;28;20057;-58
2023/02/02 12:06:42;;;;;;;0.93;0.80;;;3.20;99.90;;;;;;5017445;28;20042;-59
2023/02/02 12:09:18;;;;;;;1.20;0.80;;;3.20;99.90;;;;;;5020055;28;20120;-60
2023/02/02 12:12:14;;;;;;;1.20;0.80;;;3.10;99.90;;;;;;5013674;28;20042;-59
2023/02/02 12:14:58;;;;;;;1.10;0.88;;;3.10;99.90;;;;;;5022626;28;20425;-56
2023/02/02 12:17:37;;;;;;;0.73;0.57;;;3.10;99.90;;;;;;5023645;28;20456;-58
2023/02/02 12:20:32;;;;;;;1.10;1.00;;;3.10;99.90;;;;;;5023706;28;20038;-56
2023/02/02 12:23:26;;;;;;;1.00;0.90;;;3.10;99.90;;;;;;5021759;28;20029;-57
2023/02/02 12:26:03;;;;;;;2.88;1.35;;;3.10;99.90;;;;;;5019296;28;20033;-61
2023/02/02 12:29:04;;;;;;;8.32;3.28;;;3.10;99.90;;;;;;5019577;28;20046;-59
2023/02/02 12:32:06;;;;;;;1.52;1.10;;;3.10;99.90;;;;;;4993101;28;20136;-55
2023/02/02 12:35:00;;;;;;;1.17;1.08;;;3.10;99.90;;;;;;5023492;28;20048;-60
2023/02/02 12:37:43;;;;;;;3.28;1.77;;;3.00;99.90;;;;;;4990843;28;20033;-58
2023/02/02 12:40:30;;;;;;;1.75;1.20;;;3.00;99.90;;;;;;5018540;28;20037;-56
2023/02/02 12:43:20;;;;;;;1.67;1.25;;;3.00;99.90;;;;;;5026778;28;20091;-57
2023/02/02 12:46:16;;;;;;;1.80;1.15;;;3.10;99.90;;;;;;5020375;28;20030;-57
2023/02/02 12:49:10;;;;;;;3.17;1.40;;;3.10;99.90;;;;;;5022563;28;20068;-59
2023/02/02 12:52:00;;;;;;;2.78;1.80;;;3.20;99.90;;;;;;5022938;28;20037;-59
2023/02/02 12:54:48;;;;;;;2.38;1.30;;;3.20;99.90;;;;;;5024107;28;20398;-58
2023/02/02 12:57:16;;;;;;;6.45;1.85;;;3.30;99.90;;;;;;5019353;28;20092;-57
2023/02/02 12:59:45;;;;;;;2.22;1.90;;;3.20;99.90;;;;;;5020320;28;20403;-60
2023/02/02 13:02:38;;;;;;;1.70;1.48;;;3.10;99.90;;;;;;5017651;28;20552;-59
2023/02/02 13:05:42;;;;;;;2.85;1.20;;;3.10;99.90;;;;;;5021279;28;20033;-59
2023/02/02 13:08:20;;;;;;;1.95;1.40;;;3.10;99.90;;;;;;5022486;28;20041;-59
2023/02/02 13:10:51;;;;;;;2.63;1.52;;;3.10;99.90;;;;;;5020582;28;20044;-59
2023/02/02 13:13:19;;;;;;;1.83;1.33;;;3.10;99.90;;;;;;5021570;28;20034;-59
2023/02/02 13:15:49;;;;;;;3.00;1.65;;;3.20;99.90;;;;;;5019848;28;20037;-58
2023/02/02 13:18:36;;;;;;;1.20;0.98;;;3.20;99.90;;;;;;5023483;28;20524;-57
2023/02/02 13:21:05;;;;;;;;;;;3.10;99.90;;;;;;5022210;28;20029;-57
2023/02/02 13:23:42;;;;;;;2.17;1.55;;;3.10;99.90;;;;;;5021718;28;19917;-58
2023/02/02 13:26:25;;;;;;;2.78;1.85;;;3.10;99.90;;;;;;5016013;28;20147;-58
2023/02/02 13:28:59;;;;;;;3.58;1.58;;;3.10;99.90;;;;;;5020982;28;20037;-60